createdAt,value
2019-02-23T00:00:16.941Z,8.70
2019-02-23T00:02:45.507Z,8.70
2019-02-23T00:05:14.022Z,8.70
2019-02-23T00:07:47.903Z,8.60
2019-02-23T00:10:13.818Z,8.60
2019-02-23T00:12:44.042Z,8.60
2019-02-23T00:15:12.517Z,8.50
2019-02-23T00:21:13.514Z,8.30
2019-02-23T00:23:42.110Z,8.30
2019-02-23T00:26:10.573Z,8.40
2019-02-23T00:28:39.850Z,8.50
2019-02-23T00:31:08.820Z,8.50
2019-02-23T00:36:26.902Z,8.30
2019-02-23T00:38:55.585Z,8.30
2019-02-23T00:54:18.315Z,7.90
2019-02-23T01:55:33.526Z,7.40
2019-02-23T01:58:02.453Z,7.60
2019-02-23T02:04:12.850Z,7.60
2019-02-23T02:10:23.644Z,7.40
2019-02-23T02:12:54.578Z,7.50
2019-02-23T02:15:23.412Z,7.50
2019-02-23T02:17:51.916Z,7.50
2019-02-23T02:20:20.421Z,7.60
2019-02-23T02:22:48.918Z,7.60
2019-02-23T02:25:17.536Z,7.60
2019-02-23T02:31:14.472Z,7.70
2019-02-23T02:34:03.508Z,7.90
2019-02-23T02:40:13.382Z,8.10
2019-02-23T02:46:22.876Z,8.30
2019-02-23T02:48:51.488Z,8.30
2019-02-23T02:51:20.085Z,8.40
2019-02-23T02:57:29.872Z,8.60
2019-02-23T03:06:15.948Z,8.80
2019-02-23T03:12:13.832Z,8.80
2019-02-23T03:14:42.508Z,8.80
2019-02-23T03:17:12.850Z,8.90
2019-02-23T03:23:10.375Z,8.90
2019-02-23T03:29:07.831Z,9.00
2019-02-23T03:31:36.357Z,9.00
2019-02-23T03:37:34.411Z,9.00
2019-02-23T03:43:44.031Z,8.90
2019-02-23T03:46:12.596Z,8.90
2019-02-23T03:48:41.104Z,9.00
2019-02-23T03:54:38.131Z,9.00
2019-02-23T03:57:07.005Z,9.00
2019-02-23T03:59:41.694Z,9.10
2019-02-23T04:02:10.243Z,9.00
2019-02-23T04:04:38.761Z,9.00
2019-02-23T04:07:07.847Z,9.10
2019-02-23T04:09:38.174Z,9.00
2019-02-23T04:12:07.184Z,9.00
2019-02-23T04:14:35.925Z,9.00
2019-02-23T04:17:04.640Z,8.90
2019-02-23T04:19:33.218Z,8.90
2019-02-23T04:25:30.273Z,8.80
2019-02-23T04:27:58.795Z,8.90
2019-02-23T04:30:27.281Z,8.80
2019-02-23T04:32:55.846Z,8.80
2019-02-23T04:35:24.833Z,8.80
2019-02-23T04:37:57.484Z,8.80
2019-02-23T04:40:27.401Z,8.70
2019-02-23T04:46:45.595Z,8.80
2019-02-23T04:49:15.609Z,8.70
2019-02-23T04:55:12.267Z,8.70
2019-02-23T05:01:22.250Z,8.60
2019-02-23T05:13:24.057Z,8.70
2019-02-23T05:15:52.751Z,8.80
2019-02-23T05:22:02.617Z,8.70
2019-02-23T05:28:14.269Z,8.70
2019-02-23T05:30:42.743Z,8.50
2019-02-23T05:35:46.719Z,8.40
2019-02-23T05:38:15.420Z,8.40
2019-02-23T05:40:44.082Z,8.40
2019-02-23T05:43:12.813Z,8.30
2019-02-23T05:45:41.687Z,8.30
2019-02-23T05:48:16.529Z,8.20
2019-02-23T05:54:13.542Z,8.10
2019-02-23T05:56:42.373Z,8.00
2019-02-23T06:02:51.851Z,7.90
2019-02-23T06:09:01.654Z,8.00
2019-02-23T06:11:30.153Z,7.80
2019-02-23T06:13:58.657Z,7.80
2019-02-23T06:20:02.499Z,7.70
2019-02-23T06:22:32.934Z,7.70
2019-02-23T06:34:48.818Z,7.60
2019-02-23T06:40:52.436Z,7.70
2019-02-23T06:43:24.048Z,7.50
2019-02-23T06:49:42.220Z,7.60
2019-02-23T06:55:55.098Z,7.60
2019-02-23T06:58:33.167Z,7.50
2019-02-23T07:01:09.735Z,7.50
2019-02-23T07:03:41.802Z,7.40
2019-02-23T07:06:13.841Z,7.40
2019-02-23T07:08:44.603Z,7.50
2019-02-23T07:11:18.371Z,7.50
2019-02-23T07:17:09.111Z,7.60
2019-02-23T07:19:42.320Z,7.60
2019-02-23T07:25:10.811Z,7.60
2019-02-23T07:31:08.200Z,7.60
2019-02-23T07:37:29.336Z,7.60
2019-02-23T07:39:58.429Z,7.50
2019-02-23T07:42:36.285Z,7.60
2019-02-23T07:45:07.528Z,7.80
2019-02-23T07:47:36.025Z,7.90
2019-02-23T07:57:07.824Z,7.60
2019-02-23T08:03:11.439Z,8.00
2019-02-23T08:05:53.075Z,8.10
2019-02-23T08:11:14.100Z,8.30
2019-02-23T08:13:42.773Z,8.20
2019-02-23T08:16:11.343Z,8.30
2019-02-23T08:18:40.064Z,8.40
2019-02-23T08:21:09.949Z,8.30
2019-02-23T08:23:40.289Z,8.40
2019-02-23T08:26:10.774Z,8.60
2019-02-23T08:28:44.731Z,8.70
2019-02-23T08:43:57.522Z,8.80
2019-02-23T08:50:04.192Z,8.80
2019-02-23T08:52:36.086Z,8.80
2019-02-23T08:55:08.459Z,9.00
2019-02-23T08:57:36.959Z,9.30
2019-02-23T09:00:13.814Z,9.50
2019-02-23T09:02:42.428Z,9.90
2019-02-23T09:05:12.315Z,10.50
2019-02-23T09:17:43.789Z,11.30
2019-02-23T09:20:12.930Z,11.80
2019-02-23T09:33:07.483Z,12.10
2019-02-23T09:35:36.478Z,12.40
2019-02-23T09:41:47.886Z,13.10
2019-02-23T09:44:18.126Z,12.70
2019-02-23T09:47:04.485Z,12.40
2019-02-23T09:59:55.344Z,13.90
2019-02-23T10:02:19.970Z,14.10
2019-02-23T10:04:50.181Z,13.50
2019-02-23T10:07:18.875Z,13.10
2019-02-23T10:09:50.107Z,13.50
2019-02-23T10:12:28.779Z,13.60
2019-02-23T10:15:02.855Z,14.50
2019-02-23T10:17:42.908Z,14.80
2019-02-23T10:23:50.508Z,15.20
2019-02-23T10:26:19.195Z,14.80
2019-02-23T10:32:21.485Z,13.70
2019-02-23T10:45:22.295Z,13.00
2019-02-23T10:47:52.929Z,13.40
2019-02-23T10:54:04.641Z,13.40
2019-02-23T10:56:36.513Z,12.90
2019-02-23T10:59:05.712Z,12.60
2019-02-23T11:01:36.927Z,12.90
2019-02-23T11:04:07.177Z,13.10
2019-02-23T11:06:38.442Z,12.70
2019-02-23T11:09:08.599Z,12.80
2019-02-23T11:11:37.325Z,12.70
2019-02-23T11:14:08.466Z,12.60
2019-02-23T11:16:37.357Z,12.50
2019-02-23T11:19:09.934Z,12.60
2019-02-23T11:57:27.199Z,14.30
2019-02-23T12:08:06.994Z,14.20
2019-02-23T12:10:37.115Z,14.60
2019-02-23T12:13:06.255Z,14.60
2019-02-23T12:15:37.763Z,14.90
2019-02-23T12:28:29.044Z,14.40
2019-02-23T12:30:58.038Z,14.30
2019-02-23T12:55:58.820Z,14.30
2019-02-23T13:01:16.499Z,14.40
2019-02-23T13:22:46.099Z,14.60
2019-02-23T13:59:03.257Z,16.40
2019-02-23T15:03:26.956Z,16.90
2019-02-23T15:06:27.498Z,17.70
2019-02-23T15:09:09.348Z,18.00
2019-02-23T15:15:40.963Z,17.20
2019-02-23T15:18:46.216Z,16.90
2019-02-23T15:21:18.162Z,17.80
2019-02-23T15:24:12.465Z,18.70
2019-02-23T15:27:20.249Z,18.40
2019-02-23T15:33:31.324Z,17.90
2019-02-23T15:36:15.199Z,17.90
2019-02-23T15:39:03.750Z,17.60
2019-02-23T15:41:50.670Z,17.50
2019-02-23T15:44:34.533Z,17.50
2019-02-23T15:47:18.473Z,16.90
2019-02-23T15:49:47.351Z,16.70
2019-02-23T15:52:16.016Z,16.60
2019-02-23T15:54:45.018Z,16.10
2019-02-23T15:57:48.409Z,15.20
2019-02-23T16:00:19.011Z,14.70
2019-02-23T16:02:47.802Z,14.00
2019-02-23T16:05:18.743Z,13.30
2019-02-23T16:07:47.518Z,12.70
2019-02-23T16:10:18.979Z,12.30
2019-02-23T16:12:52.097Z,12.00
2019-02-23T16:15:20.855Z,11.80
2019-02-23T16:17:50.083Z,11.50
2019-02-23T16:20:33.587Z,11.30
2019-02-23T16:23:06.808Z,11.20
2019-02-23T16:25:41.202Z,11.10
2019-02-23T16:28:31.824Z,10.90
2019-02-23T16:31:20.609Z,10.80
2019-02-23T16:33:59.482Z,10.80
2019-02-23T16:36:53.177Z,10.80
2019-02-23T16:39:21.861Z,10.70
2019-02-23T16:41:51.034Z,10.60
2019-02-23T16:44:20.234Z,10.50
2019-02-23T16:46:58.090Z,10.40
2019-02-23T16:50:03.551Z,10.20
2019-02-23T16:52:41.484Z,10.10
2019-02-23T16:58:31.593Z,10.10
2019-02-23T17:01:20.978Z,10.10
2019-02-23T17:03:58.358Z,9.90
2019-02-23T17:06:41.581Z,9.80
2019-02-23T17:09:26.759Z,9.70
2019-02-23T17:12:06.472Z,9.70
2019-02-23T17:14:51.877Z,9.60
2019-02-23T17:17:27.841Z,9.60
2019-02-23T17:20:02.561Z,9.40
2019-02-23T17:22:34.689Z,9.40
2019-02-23T17:25:23.179Z,9.30
2019-02-23T17:28:00.158Z,9.30
2019-02-23T17:30:44.101Z,9.30
2019-02-23T17:36:27.776Z,9.30
2019-02-23T17:38:59.825Z,9.10
2019-02-23T17:41:39.666Z,9.10
2019-02-23T17:44:14.710Z,9.00
2019-02-23T17:46:54.634Z,8.90
2019-02-23T17:49:50.140Z,8.90
2019-02-23T17:52:32.656Z,8.80
2019-02-23T17:55:10.998Z,8.70
2019-02-23T17:57:46.985Z,8.70
2019-02-23T18:00:26.171Z,8.70
2019-02-23T18:03:00.580Z,8.70
2019-02-23T18:05:29.783Z,8.70
2019-02-23T18:08:06.589Z,8.70
2019-02-23T18:10:40.256Z,8.60
2019-02-23T18:13:11.938Z,8.50
2019-02-23T18:15:43.786Z,8.50
2019-02-23T18:18:14.213Z,8.50
2019-02-23T18:20:43.190Z,8.50
2019-02-23T18:23:18.942Z,8.40
2019-02-23T18:25:47.849Z,8.30
2019-02-23T18:28:25.346Z,8.20
2019-02-23T18:30:53.581Z,8.10
2019-02-23T18:33:35.410Z,8.20
2019-02-23T18:36:22.942Z,8.20
2019-02-23T18:38:59.000Z,8.00
2019-02-23T18:41:48.061Z,7.80
2019-02-23T18:47:36.316Z,7.50
2019-02-23T18:50:15.661Z,7.40
2019-02-23T18:53:04.832Z,7.30
2019-02-23T18:55:41.112Z,7.40
2019-02-23T18:58:11.311Z,7.60
2019-02-23T19:00:46.758Z,7.50
2019-02-23T19:03:31.206Z,7.60
2019-02-23T19:06:12.513Z,7.60
2019-02-23T19:08:41.895Z,7.60
2019-02-23T19:11:12.530Z,7.40
2019-02-23T19:16:47.864Z,7.20
2019-02-23T19:19:27.064Z,7.20
2019-02-23T19:22:06.253Z,7.20
2019-02-23T19:24:39.669Z,7.20
2019-02-23T19:27:12.879Z,7.10
2019-02-23T19:29:41.711Z,7.10
2019-02-23T19:32:13.087Z,7.10
2019-02-23T19:34:43.392Z,7.20
2019-02-23T19:37:14.473Z,7.20
2019-02-23T19:39:42.509Z,7.10
2019-02-23T19:42:11.807Z,6.90
2019-02-23T19:44:54.859Z,6.90
2019-02-23T19:47:15.036Z,6.80
2019-02-23T19:49:46.579Z,6.80
2019-02-23T19:52:16.829Z,6.80
2019-02-23T19:54:45.490Z,6.80
2019-02-23T19:57:17.131Z,6.80
2019-02-23T19:59:45.780Z,6.60
2019-02-23T20:02:14.284Z,6.60
2019-02-23T20:04:43.017Z,6.80
2019-02-23T20:07:11.577Z,6.70
2019-02-23T20:09:41.389Z,6.60
2019-02-23T20:12:09.946Z,6.40
2019-02-23T20:14:38.666Z,6.40
2019-02-23T20:17:07.379Z,6.30
2019-02-23T20:19:35.855Z,6.20
2019-02-23T20:22:04.534Z,6.20
2019-02-23T20:24:36.046Z,6.20
2019-02-23T20:27:06.890Z,6.20
2019-02-23T20:29:37.732Z,6.20
2019-02-23T20:32:06.225Z,6.30
2019-02-23T20:34:34.758Z,6.20
2019-02-23T20:37:06.098Z,6.20
2019-02-23T20:39:46.940Z,6.20
2019-02-23T20:42:18.856Z,6.10
2019-02-23T20:44:48.791Z,6.10
2019-02-23T20:47:19.120Z,6.10
2019-02-23T20:49:50.440Z,6.00
2019-02-23T20:52:18.953Z,6.00
2019-02-23T20:54:47.513Z,6.20
2019-02-23T20:57:16.042Z,6.20
2019-02-23T20:59:44.537Z,6.10
2019-02-23T21:02:20.361Z,6.10
2019-02-23T21:04:49.202Z,6.20
2019-02-23T21:07:17.676Z,6.20
2019-02-23T21:09:46.259Z,6.30
2019-02-23T21:12:14.845Z,6.30
2019-02-23T21:14:43.335Z,6.30
2019-02-23T21:17:11.834Z,6.20
2019-02-23T21:19:42.816Z,6.10
2019-02-23T21:22:11.466Z,6.10
2019-02-23T21:24:39.941Z,6.10
2019-02-23T21:27:12.973Z,6.10
2019-02-23T21:29:38.593Z,6.10
2019-02-23T21:32:07.292Z,6.20
2019-02-23T21:34:35.830Z,6.10
2019-02-23T21:37:04.327Z,6.10
2019-02-23T21:39:35.682Z,6.10
2019-02-23T21:42:06.089Z,6.10
2019-02-23T21:44:34.710Z,6.10
2019-02-23T21:47:03.363Z,6.00
2019-02-23T21:49:32.016Z,6.20
2019-02-23T21:52:00.530Z,6.10
2019-02-23T21:54:29.218Z,6.00
2019-02-23T21:57:00.584Z,6.00
2019-02-23T21:59:32.097Z,6.00
2019-02-23T22:02:02.291Z,5.90
2019-02-23T22:04:30.808Z,6.00
2019-02-23T22:09:45.236Z,6.00
2019-02-23T22:12:15.084Z,6.00
2019-02-23T22:14:43.784Z,6.00
2019-02-23T22:17:12.190Z,5.90
2019-02-23T22:19:40.625Z,6.00
2019-02-23T22:22:09.318Z,6.00
2019-02-23T22:24:37.838Z,6.00
2019-02-23T22:27:06.433Z,6.00
2019-02-23T22:29:34.952Z,6.00
2019-02-23T22:32:03.380Z,5.90
2019-02-23T22:34:31.881Z,6.00
2019-02-23T22:37:02.593Z,6.00
2019-02-23T22:39:31.063Z,6.00
2019-02-23T22:41:59.516Z,6.10
2019-02-23T22:44:28.012Z,6.00
2019-02-23T22:46:56.843Z,6.00
2019-02-23T22:49:25.439Z,6.00
2019-02-23T22:51:53.836Z,5.90
2019-02-23T22:54:22.434Z,5.90
2019-02-23T22:56:50.851Z,5.80
2019-02-23T22:59:19.294Z,5.90
2019-02-23T23:01:47.870Z,6.00
2019-02-23T23:04:16.397Z,6.00
2019-02-23T23:06:45.300Z,6.00
2019-02-23T23:09:15.374Z,5.90
2019-02-23T23:11:43.816Z,5.80
2019-02-23T23:14:12.419Z,5.80
2019-02-23T23:16:40.856Z,5.80
2019-02-23T23:19:09.413Z,5.80
2019-02-23T23:21:37.923Z,5.80
2019-02-23T23:24:06.506Z,5.90
2019-02-23T23:26:35.209Z,5.80
2019-02-23T23:29:03.829Z,5.70
2019-02-23T23:31:32.375Z,5.70
2019-02-23T23:34:00.893Z,5.70
2019-02-23T23:36:29.510Z,5.60
2019-02-23T23:38:58.057Z,5.70
2019-02-23T23:41:26.728Z,5.70
2019-02-23T23:43:55.192Z,5.70
2019-02-23T23:46:23.754Z,5.70
2019-02-23T23:48:52.325Z,5.70
2019-02-23T23:51:20.825Z,5.60
2019-02-23T23:53:49.424Z,5.60
2019-02-23T23:56:17.909Z,5.70
2019-02-23T23:58:46.547Z,5.70
